sensor_id;sensor_type;location;lat;lon;timestamp;temperature;humidity
50758;DHT22;36732;47.980;11.652;2022-09-17T00:01:07;16.90;59.30
50758;DHT22;36732;47.980;11.652;2022-09-17T00:03:34;16.90;59.30
50758;DHT22;36732;47.980;11.652;2022-09-17T00:06:02;16.90;59.30
50758;DHT22;36732;47.980;11.652;2022-09-17T00:08:31;16.80;59.20
50758;DHT22;36732;47.980;11.652;2022-09-17T00:10:57;16.80;59.30
50758;DHT22;36732;47.980;11.652;2022-09-17T00:13:31;16.80;59.30
50758;DHT22;36732;47.980;11.652;2022-09-17T00:15:56;16.80;59.30
50758;DHT22;36732;47.980;11.652;2022-09-17T00:18:22;16.80;59.20
50758;DHT22;36732;47.980;11.652;2022-09-17T00:20:48;16.80;59.20
50758;DHT22;36732;47.980;11.652;2022-09-17T00:23:14;16.80;59.30
50758;DHT22;36732;47.980;11.652;2022-09-17T00:25:41;16.80;59.30
50758;DHT22;36732;47.980;11.652;2022-09-17T00:28:09;16.80;59.30
50758;DHT22;36732;47.980;11.652;2022-09-17T00:30:39;16.80;59.10
50758;DHT22;36732;47.980;11.652;2022-09-17T00:33:05;16.80;59.20
50758;DHT22;36732;47.980;11.652;2022-09-17T00:35:31;16.80;59.20
50758;DHT22;36732;47.980;11.652;2022-09-17T00:37:57;16.80;59.20
50758;DHT22;36732;47.980;11.652;2022-09-17T00:40:23;16.80;59.20
50758;DHT22;36732;47.980;11.652;2022-09-17T00:42:48;16.80;59.00
50758;DHT22;36732;47.980;11.652;2022-09-17T00:45:15;16.70;59.00
50758;DHT22;36732;47.980;11.652;2022-09-17T00:47:44;16.70;59.20
50758;DHT22;36732;47.980;11.652;2022-09-17T00:50:22;16.70;59.10
50758;DHT22;36732;47.980;11.652;2022-09-17T00:53:03;16.70;59.00
50758;DHT22;36732;47.980;11.652;2022-09-17T00:55:35;16.70;59.00
50758;DHT22;36732;47.980;11.652;2022-09-17T00:58:05;16.70;59.00
50758;DHT22;36732;47.980;11.652;2022-09-17T01:00:33;16.70;59.00
50758;DHT22;36732;47.980;11.652;2022-09-17T01:02:59;16.70;59.00
50758;DHT22;36732;47.980;11.652;2022-09-17T01:05:39;16.70;58.90
50758;DHT22;36732;47.980;11.652;2022-09-17T01:08:30;16.70;58.90
50758;DHT22;36732;47.980;11.652;2022-09-17T01:12:15;16.70;58.80
50758;DHT22;36732;47.980;11.652;2022-09-17T01:15:09;16.70;58.60
50758;DHT22;36732;47.980;11.652;2022-09-17T01:20:59;16.70;58.40
50758;DHT22;36732;47.980;11.652;2022-09-17T01:38:12;16.60;58.60
50758;DHT22;36732;47.980;11.652;2022-09-17T01:41:00;16.60;58.60
50758;DHT22;36732;47.980;11.652;2022-09-17T01:43:54;16.60;58.50
50758;DHT22;36732;47.980;11.652;2022-09-17T01:46:45;16.50;58.60
50758;DHT22;36732;47.980;11.652;2022-09-17T01:49:15;16.50;58.60
50758;DHT22;36732;47.980;11.652;2022-09-17T01:51:45;16.50;58.70
50758;DHT22;36732;47.980;11.652;2022-09-17T01:56:59;16.50;58.80
50758;DHT22;36732;47.980;11.652;2022-09-17T01:59:37;16.50;58.70
50758;DHT22;36732;47.980;11.652;2022-09-17T02:02:12;16.40;58.60
50758;DHT22;36732;47.980;11.652;2022-09-17T02:04:48;16.40;58.70
50758;DHT22;36732;47.980;11.652;2022-09-17T02:07:19;16.50;58.70
50758;DHT22;36732;47.980;11.652;2022-09-17T02:09:53;16.40;58.80
50758;DHT22;36732;47.980;11.652;2022-09-17T02:12:40;16.40;58.70
50758;DHT22;36732;47.980;11.652;2022-09-17T02:15:14;16.40;58.60
50758;DHT22;36732;47.980;11.652;2022-09-17T02:20:28;16.40;58.60
50758;DHT22;36732;47.980;11.652;2022-09-17T02:23:10;16.40;58.70
50758;DHT22;36732;47.980;11.652;2022-09-17T02:25:52;16.40;58.60
50758;DHT22;36732;47.980;11.652;2022-09-17T02:29:28;16.30;58.60
50758;DHT22;36732;47.980;11.652;2022-09-17T02:31:25;16.30;58.60
50758;DHT22;36732;47.980;11.652;2022-09-17T02:33:54;16.40;58.70
50758;DHT22;36732;47.980;11.652;2022-09-17T02:36:24;16.30;58.70
50758;DHT22;36732;47.980;11.652;2022-09-17T02:38:58;16.30;58.70
50758;DHT22;36732;47.980;11.652;2022-09-17T02:41:51;16.30;58.70
50758;DHT22;36732;47.980;11.652;2022-09-17T02:44:38;16.30;58.80
50758;DHT22;36732;47.980;11.652;2022-09-17T02:47:37;16.30;58.70
50758;DHT22;36732;47.980;11.652;2022-09-17T02:50:55;16.20;58.70
50758;DHT22;36732;47.980;11.652;2022-09-17T02:53:38;16.20;58.70
50758;DHT22;36732;47.980;11.652;2022-09-17T02:56:55;16.20;58.60
50758;DHT22;36732;47.980;11.652;2022-09-17T02:59:57;16.20;58.70
50758;DHT22;36732;47.980;11.652;2022-09-17T03:02:33;16.20;58.80
50758;DHT22;36732;47.980;11.652;2022-09-17T03:05:02;16.20;58.60
50758;DHT22;36732;47.980;11.652;2022-09-17T03:07:29;16.20;58.70
50758;DHT22;36732;47.980;11.652;2022-09-17T03:09:56;16.20;58.70
50758;DHT22;36732;47.980;11.652;2022-09-17T03:12:22;16.20;58.90
50758;DHT22;36732;47.980;11.652;2022-09-17T03:14:49;16.20;58.80
50758;DHT22;36732;47.980;11.652;2022-09-17T03:17:15;16.20;58.70
50758;DHT22;36732;47.980;11.652;2022-09-17T03:19:40;16.20;58.70
50758;DHT22;36732;47.980;11.652;2022-09-17T03:22:06;16.20;58.70
50758;DHT22;36732;47.980;11.652;2022-09-17T03:24:32;16.20;58.80
50758;DHT22;36732;47.980;11.652;2022-09-17T03:26:57;16.20;58.80
50758;DHT22;36732;47.980;11.652;2022-09-17T03:29:23;16.10;58.80
50758;DHT22;36732;47.980;11.652;2022-09-17T03:31:49;16.20;58.80
50758;DHT22;36732;47.980;11.652;2022-09-17T03:34:14;16.10;58.70
50758;DHT22;36732;47.980;11.652;2022-09-17T03:36:40;16.20;59.40
50758;DHT22;36732;47.980;11.652;2022-09-17T03:39:06;16.10;58.70
50758;DHT22;36732;47.980;11.652;2022-09-17T03:41:31;16.10;58.80
50758;DHT22;36732;47.980;11.652;2022-09-17T03:43:57;16.10;58.80
50758;DHT22;36732;47.980;11.652;2022-09-17T03:46:23;16.10;58.70
50758;DHT22;36732;47.980;11.652;2022-09-17T03:48:48;16.10;58.70
50758;DHT22;36732;47.980;11.652;2022-09-17T03:51:14;16.10;58.80
50758;DHT22;36732;47.980;11.652;2022-09-17T03:53:40;16.10;58.60
50758;DHT22;36732;47.980;11.652;2022-09-17T03:56:06;16.10;58.50
50758;DHT22;36732;47.980;11.652;2022-09-17T03:58:33;16.10;58.40
50758;DHT22;36732;47.980;11.652;2022-09-17T04:00:59;16.10;58.50
50758;DHT22;36732;47.980;11.652;2022-09-17T04:03:26;16.10;58.50
50758;DHT22;36732;47.980;11.652;2022-09-17T04:05:53;16.10;58.50
50758;DHT22;36732;47.980;11.652;2022-09-17T04:08:19;16.10;58.60
50758;DHT22;36732;47.980;11.652;2022-09-17T04:10:46;16.10;58.50
50758;DHT22;36732;47.980;11.652;2022-09-17T04:13:13;16.00;58.50
50758;DHT22;36732;47.980;11.652;2022-09-17T04:15:40;16.00;58.50
50758;DHT22;36732;47.980;11.652;2022-09-17T04:18:06;16.00;58.50
50758;DHT22;36732;47.980;11.652;2022-09-17T04:20:32;16.00;58.50
50758;DHT22;36732;47.980;11.652;2022-09-17T04:22:58;16.00;58.50
50758;DHT22;36732;47.980;11.652;2022-09-17T04:25:24;16.00;58.50
50758;DHT22;36732;47.980;11.652;2022-09-17T04:27:50;16.00;58.50
50758;DHT22;36732;47.980;11.652;2022-09-17T04:30:16;16.00;58.50
50758;DHT22;36732;47.980;11.652;2022-09-17T04:32:43;16.00;58.50
50758;DHT22;36732;47.980;11.652;2022-09-17T04:35:10;16.00;58.50
50758;DHT22;36732;47.980;11.652;2022-09-17T04:37:36;16.00;58.40
50758;DHT22;36732;47.980;11.652;2022-09-17T04:40:03;15.90;58.40
50758;DHT22;36732;47.980;11.652;2022-09-17T04:42:31;16.00;58.50
50758;DHT22;36732;47.980;11.652;2022-09-17T04:44:56;15.90;58.40
50758;DHT22;36732;47.980;11.652;2022-09-17T04:47:23;15.90;58.40
50758;DHT22;36732;47.980;11.652;2022-09-17T04:49:49;15.90;58.50
50758;DHT22;36732;47.980;11.652;2022-09-17T04:52:15;15.90;58.60
50758;DHT22;36732;47.980;11.652;2022-09-17T04:54:41;15.90;58.70
50758;DHT22;36732;47.980;11.652;2022-09-17T04:57:07;15.90;58.70
50758;DHT22;36732;47.980;11.652;2022-09-17T04:59:32;15.90;58.50
50758;DHT22;36732;47.980;11.652;2022-09-17T05:01:58;15.90;58.60
50758;DHT22;36732;47.980;11.652;2022-09-17T05:04:24;15.90;58.50
50758;DHT22;36732;47.980;11.652;2022-09-17T05:06:49;15.90;58.50
50758;DHT22;36732;47.980;11.652;2022-09-17T05:09:15;15.90;58.40
50758;DHT22;36732;47.980;11.652;2022-09-17T05:11:41;15.90;58.40
50758;DHT22;36732;47.980;11.652;2022-09-17T05:14:07;15.80;58.30
50758;DHT22;36732;47.980;11.652;2022-09-17T05:16:33;15.80;58.20
50758;DHT22;36732;47.980;11.652;2022-09-17T05:18:58;15.80;58.20
50758;DHT22;36732;47.980;11.652;2022-09-17T05:21:24;15.80;58.00
50758;DHT22;36732;47.980;11.652;2022-09-17T05:23:50;15.80;58.00
50758;DHT22;36732;47.980;11.652;2022-09-17T05:26:15;15.80;58.10
50758;DHT22;36732;47.980;11.652;2022-09-17T05:28:41;15.80;58.10
50758;DHT22;36732;47.980;11.652;2022-09-17T05:31:07;15.80;58.00
50758;DHT22;36732;47.980;11.652;2022-09-17T05:33:33;15.80;57.90
50758;DHT22;36732;47.980;11.652;2022-09-17T05:35:59;15.80;57.90
50758;DHT22;36732;47.980;11.652;2022-09-17T05:38:25;15.80;57.90
50758;DHT22;36732;47.980;11.652;2022-09-17T05:40:51;15.80;57.80
50758;DHT22;36732;47.980;11.652;2022-09-17T05:43:17;15.80;57.90
50758;DHT22;36732;47.980;11.652;2022-09-17T05:45:43;15.70;57.80
50758;DHT22;36732;47.980;11.652;2022-09-17T05:48:11;15.70;57.90
50758;DHT22;36732;47.980;11.652;2022-09-17T05:50:38;15.70;57.80
50758;DHT22;36732;47.980;11.652;2022-09-17T05:53:06;15.70;57.80
50758;DHT22;36732;47.980;11.652;2022-09-17T05:55:33;15.70;57.80
50758;DHT22;36732;47.980;11.652;2022-09-17T05:58:00;15.70;57.90
50758;DHT22;36732;47.980;11.652;2022-09-17T06:00:29;15.70;57.90
50758;DHT22;36732;47.980;11.652;2022-09-17T06:02:55;15.70;57.90
50758;DHT22;36732;47.980;11.652;2022-09-17T06:05:23;15.70;58.00
50758;DHT22;36732;47.980;11.652;2022-09-17T06:07:49;15.70;58.00
50758;DHT22;36732;47.980;11.652;2022-09-17T06:10:16;15.70;58.00
50758;DHT22;36732;47.980;11.652;2022-09-17T06:12:41;15.70;58.00
50758;DHT22;36732;47.980;11.652;2022-09-17T06:15:08;15.70;58.10
50758;DHT22;36732;47.980;11.652;2022-09-17T06:17:34;15.70;58.20
50758;DHT22;36732;47.980;11.652;2022-09-17T06:20:02;15.70;58.10
50758;DHT22;36732;47.980;11.652;2022-09-17T06:22:28;15.70;58.20
50758;DHT22;36732;47.980;11.652;2022-09-17T06:24:54;15.70;58.00
50758;DHT22;36732;47.980;11.652;2022-09-17T06:27:20;15.70;58.20
50758;DHT22;36732;47.980;11.652;2022-09-17T06:29:45;15.70;58.10
50758;DHT22;36732;47.980;11.652;2022-09-17T06:32:11;15.70;58.20
50758;DHT22;36732;47.980;11.652;2022-09-17T06:34:40;15.70;58.30
50758;DHT22;36732;47.980;11.652;2022-09-17T06:37:05;15.70;58.30
50758;DHT22;36732;47.980;11.652;2022-09-17T06:39:31;15.70;58.20
50758;DHT22;36732;47.980;11.652;2022-09-17T06:41:57;15.70;58.20
50758;DHT22;36732;47.980;11.652;2022-09-17T06:44:23;15.70;58.30
50758;DHT22;36732;47.980;11.652;2022-09-17T06:46:49;15.70;58.30
50758;DHT22;36732;47.980;11.652;2022-09-17T06:49:16;15.70;58.30
50758;DHT22;36732;47.980;11.652;2022-09-17T06:51:43;15.70;58.30
50758;DHT22;36732;47.980;11.652;2022-09-17T06:54:09;15.70;58.20
50758;DHT22;36732;47.980;11.652;2022-09-17T06:56:35;15.70;58.10
50758;DHT22;36732;47.980;11.652;2022-09-17T06:59:01;15.70;58.20
50758;DHT22;36732;47.980;11.652;2022-09-17T07:01:26;15.70;57.90
50758;DHT22;36732;47.980;11.652;2022-09-17T07:03:52;15.70;57.60
50758;DHT22;36732;47.980;11.652;2022-09-17T07:06:19;15.70;57.10
50758;DHT22;36732;47.980;11.652;2022-09-17T07:08:45;15.70;56.80
50758;DHT22;36732;47.980;11.652;2022-09-17T07:11:11;15.70;56.90
50758;DHT22;36732;47.980;11.652;2022-09-17T07:13:38;15.70;56.60
50758;DHT22;36732;47.980;11.652;2022-09-17T07:16:04;15.70;56.50
50758;DHT22;36732;47.980;11.652;2022-09-17T07:18:31;15.60;56.40
50758;DHT22;36732;47.980;11.652;2022-09-17T07:21:03;15.60;56.40
50758;DHT22;36732;47.980;11.652;2022-09-17T07:23:32;15.60;56.20
50758;DHT22;36732;47.980;11.652;2022-09-17T07:26:02;15.60;56.20
50758;DHT22;36732;47.980;11.652;2022-09-17T07:28:32;15.60;56.20
50758;DHT22;36732;47.980;11.652;2022-09-17T07:31:02;15.60;56.40
50758;DHT22;36732;47.980;11.652;2022-09-17T07:33:29;15.60;56.40
50758;DHT22;36732;47.980;11.652;2022-09-17T07:35:57;15.50;56.20
50758;DHT22;36732;47.980;11.652;2022-09-17T07:38:25;15.50;56.00
50758;DHT22;36732;47.980;11.652;2022-09-17T07:41:05;15.50;56.00
50758;DHT22;36732;47.980;11.652;2022-09-17T07:43:38;15.50;55.70
50758;DHT22;36732;47.980;11.652;2022-09-17T07:46:05;15.50;55.90
50758;DHT22;36732;47.980;11.652;2022-09-17T07:48:32;15.50;55.90
50758;DHT22;36732;47.980;11.652;2022-09-17T07:50:58;15.50;55.80
50758;DHT22;36732;47.980;11.652;2022-09-17T07:53:24;15.50;56.10
50758;DHT22;36732;47.980;11.652;2022-09-17T07:56:00;15.50;56.30
50758;DHT22;36732;47.980;11.652;2022-09-17T07:58:32;15.50;56.10
50758;DHT22;36732;47.980;11.652;2022-09-17T08:01:05;15.50;56.30
50758;DHT22;36732;47.980;11.652;2022-09-17T08:03:33;15.50;56.50
50758;DHT22;36732;47.980;11.652;2022-09-17T08:06:11;15.50;56.60
50758;DHT22;36732;47.980;11.652;2022-09-17T08:08:39;15.50;56.90
50758;DHT22;36732;47.980;11.652;2022-09-17T08:11:10;15.50;57.10
50758;DHT22;36732;47.980;11.652;2022-09-17T08:13:38;15.50;57.00
50758;DHT22;36732;47.980;11.652;2022-09-17T08:16:06;15.50;57.20
50758;DHT22;36732;47.980;11.652;2022-09-17T08:18:34;15.50;57.30
50758;DHT22;36732;47.980;11.652;2022-09-17T08:21:03;15.60;57.50
50758;DHT22;36732;47.980;11.652;2022-09-17T08:23:30;15.60;57.40
50758;DHT22;36732;47.980;11.652;2022-09-17T08:25:58;15.60;57.80
50758;DHT22;36732;47.980;11.652;2022-09-17T08:28:25;15.60;58.00
50758;DHT22;36732;47.980;11.652;2022-09-17T08:30:53;15.60;58.10
50758;DHT22;36732;47.980;11.652;2022-09-17T08:33:19;15.70;58.10
50758;DHT22;36732;47.980;11.652;2022-09-17T08:35:55;15.70;58.00
50758;DHT22;36732;47.980;11.652;2022-09-17T08:38:27;15.70;58.10
50758;DHT22;36732;47.980;11.652;2022-09-17T08:43:44;15.80;57.90
50758;DHT22;36732;47.980;11.652;2022-09-17T08:46:15;15.80;57.90
50758;DHT22;36732;47.980;11.652;2022-09-17T08:49:31;15.80;57.80
50758;DHT22;36732;47.980;11.652;2022-09-17T08:57:45;15.90;57.10
50758;DHT22;36732;47.980;11.652;2022-09-17T09:00:22;16.00;57.30
50758;DHT22;36732;47.980;11.652;2022-09-17T09:05:34;16.00;57.30
50758;DHT22;36732;47.980;11.652;2022-09-17T09:08:29;16.00;57.00
50758;DHT22;36732;47.980;11.652;2022-09-17T09:11:05;16.00;56.70
50758;DHT22;36732;47.980;11.652;2022-09-17T09:13:39;16.10;56.70
50758;DHT22;36732;47.980;11.652;2022-09-17T09:16:25;16.10;56.60
50758;DHT22;36732;47.980;11.652;2022-09-17T09:18:55;16.10;56.40
50758;DHT22;36732;47.980;11.652;2022-09-17T09:21:27;16.10;56.40
50758;DHT22;36732;47.980;11.652;2022-09-17T09:24:00;16.10;56.20
50758;DHT22;36732;47.980;11.652;2022-09-17T09:34:17;16.10;55.30
50758;DHT22;36732;47.980;11.652;2022-09-17T09:36:44;16.20;55.50
50758;DHT22;36732;47.980;11.652;2022-09-17T09:39:19;16.10;55.40
50758;DHT22;36732;47.980;11.652;2022-09-17T09:44:59;16.10;55.00
50758;DHT22;36732;47.980;11.652;2022-09-17T09:54:27;16.10;55.20
50758;DHT22;36732;47.980;11.652;2022-09-17T09:57:09;16.10;55.50
50758;DHT22;36732;47.980;11.652;2022-09-17T09:59:38;16.10;55.40
50758;DHT22;36732;47.980;11.652;2022-09-17T10:02:05;16.10;55.90
50758;DHT22;36732;47.980;11.652;2022-09-17T10:04:32;16.10;56.20
50758;DHT22;36732;47.980;11.652;2022-09-17T10:07:04;16.10;56.60
50758;DHT22;36732;47.980;11.652;2022-09-17T10:09:32;16.10;56.60
50758;DHT22;36732;47.980;11.652;2022-09-17T10:12:16;16.10;57.00
50758;DHT22;36732;47.980;11.652;2022-09-17T10:14:45;16.10;57.50
50758;DHT22;36732;47.980;11.652;2022-09-17T10:20:16;16.10;58.00
50758;DHT22;36732;47.980;11.652;2022-09-17T10:22:45;16.10;58.60
50758;DHT22;36732;47.980;11.652;2022-09-17T10:25:27;16.10;58.40
50758;DHT22;36732;47.980;11.652;2022-09-17T10:28:33;16.10;58.30
50758;DHT22;36732;47.980;11.652;2022-09-17T10:31:03;16.20;58.50
50758;DHT22;36732;47.980;11.652;2022-09-17T10:33:37;16.20;58.50
50758;DHT22;36732;47.980;11.652;2022-09-17T10:36:07;16.20;58.30
50758;DHT22;36732;47.980;11.652;2022-09-17T10:38:38;16.20;57.80
50758;DHT22;36732;47.980;11.652;2022-09-17T10:43:49;16.20;57.50
50758;DHT22;36732;47.980;11.652;2022-09-17T10:46:26;16.30;57.60
50758;DHT22;36732;47.980;11.652;2022-09-17T10:55:17;16.30;56.80
50758;DHT22;36732;47.980;11.652;2022-09-17T11:37:22;16.00;57.70
50758;DHT22;36732;47.980;11.652;2022-09-17T11:42:43;15.90;57.80
50758;DHT22;36732;47.980;11.652;2022-09-17T11:45:19;15.90;57.80
50758;DHT22;36732;47.980;11.652;2022-09-17T11:47:49;15.90;58.00
50758;DHT22;36732;47.980;11.652;2022-09-17T11:53:06;15.90;58.20
50758;DHT22;36732;47.980;11.652;2022-09-17T11:55:53;15.90;58.50
50758;DHT22;36732;47.980;11.652;2022-09-17T12:10:38;15.90;59.40
50758;DHT22;36732;47.980;11.652;2022-09-17T12:13:44;16.00;59.20
50758;DHT22;36732;47.980;11.652;2022-09-17T12:19:31;16.00;59.10
50758;DHT22;36732;47.980;11.652;2022-09-17T12:22:24;16.00;58.50
50758;DHT22;36732;47.980;11.652;2022-09-17T12:24:52;16.00;58.90
50758;DHT22;36732;47.980;11.652;2022-09-17T12:27:36;16.10;58.90
50758;DHT22;36732;47.980;11.652;2022-09-17T12:30:17;16.10;59.30
50758;DHT22;36732;47.980;11.652;2022-09-17T12:45:50;16.10;59.20
50758;DHT22;36732;47.980;11.652;2022-09-17T12:51:25;16.20;58.60
50758;DHT22;36732;47.980;11.652;2022-09-17T12:57:41;16.20;58.50
50758;DHT22;36732;47.980;11.652;2022-09-17T13:00:14;16.20;58.30
50758;DHT22;36732;47.980;11.652;2022-09-17T13:02:59;16.20;58.60
50758;DHT22;36732;47.980;11.652;2022-09-17T13:11:25;16.20;57.50
50758;DHT22;36732;47.980;11.652;2022-09-17T13:16:54;16.20;57.80
50758;DHT22;36732;47.980;11.652;2022-09-17T13:22:17;16.20;58.30
50758;DHT22;36732;47.980;11.652;2022-09-17T13:24:45;16.20;58.00
50758;DHT22;36732;47.980;11.652;2022-09-17T13:27:22;16.20;58.20
50758;DHT22;36732;47.980;11.652;2022-09-17T13:35:10;16.20;58.30
50758;DHT22;36732;47.980;11.652;2022-09-17T13:37:44;16.20;58.30
50758;DHT22;36732;47.980;11.652;2022-09-17T13:42:56;16.20;58.30
50758;DHT22;36732;47.980;11.652;2022-09-17T13:45:29;16.20;58.70
50758;DHT22;36732;47.980;11.652;2022-09-17T13:48:08;16.20;59.00
50758;DHT22;36732;47.980;11.652;2022-09-17T13:50:38;16.20;59.40
50758;DHT22;36732;47.980;11.652;2022-09-17T13:55:47;16.30;59.40
50758;DHT22;36732;47.980;11.652;2022-09-17T14:21:54;16.60;58.70
50758;DHT22;36732;47.980;11.652;2022-09-17T14:30:19;16.90;59.50
50758;DHT22;36732;47.980;11.652;2022-09-17T14:33:13;17.00;59.50
50758;DHT22;36732;47.980;11.652;2022-09-17T14:35:49;17.20;58.80
50758;DHT22;36732;47.980;11.652;2022-09-17T14:38:19;17.30;58.40
50758;DHT22;36732;47.980;11.652;2022-09-17T14:46:57;17.50;57.40
50758;DHT22;36732;47.980;11.652;2022-09-17T14:49:32;17.60;57.40
50758;DHT22;36732;47.980;11.652;2022-09-17T14:51:59;17.70;56.50
50758;DHT22;36732;47.980;11.652;2022-09-17T14:54:30;17.80;57.30
50758;DHT22;36732;47.980;11.652;2022-09-17T14:59:26;17.80;55.90
50758;DHT22;36732;47.980;11.652;2022-09-17T15:02:29;17.80;55.80
50758;DHT22;36732;47.980;11.652;2022-09-17T15:04:58;17.70;55.00
50758;DHT22;36732;47.980;11.652;2022-09-17T15:07:25;17.70;55.50
50758;DHT22;36732;47.980;11.652;2022-09-17T15:09:51;17.70;55.40
50758;DHT22;36732;47.980;11.652;2022-09-17T15:12:23;17.70;55.30
50758;DHT22;36732;47.980;11.652;2022-09-17T15:14:54;17.70;55.00
50758;DHT22;36732;47.980;11.652;2022-09-17T15:17:21;17.60;55.00
50758;DHT22;36732;47.980;11.652;2022-09-17T15:19:50;17.60;54.70
50758;DHT22;36732;47.980;11.652;2022-09-17T15:22:22;17.50;54.60
50758;DHT22;36732;47.980;11.652;2022-09-17T15:25:12;17.50;54.40
50758;DHT22;36732;47.980;11.652;2022-09-17T15:27:53;17.40;54.60
50758;DHT22;36732;47.980;11.652;2022-09-17T15:30:22;17.40;54.80
50758;DHT22;36732;47.980;11.652;2022-09-17T15:32:59;17.30;54.40
50758;DHT22;36732;47.980;11.652;2022-09-17T15:35:32;17.30;53.90
50758;DHT22;36732;47.980;11.652;2022-09-17T15:40:32;17.20;54.40
50758;DHT22;36732;47.980;11.652;2022-09-17T15:43:20;17.10;53.50
50758;DHT22;36732;47.980;11.652;2022-09-17T15:45:46;17.00;53.30
50758;DHT22;36732;47.980;11.652;2022-09-17T15:48:34;16.90;53.50
50758;DHT22;36732;47.980;11.652;2022-09-17T15:51:04;16.80;53.00
50758;DHT22;36732;47.980;11.652;2022-09-17T15:53:37;16.80;53.50
50758;DHT22;36732;47.980;11.652;2022-09-17T16:08:52;16.30;53.90
50758;DHT22;36732;47.980;11.652;2022-09-17T16:11:24;16.30;54.20
50758;DHT22;36732;47.980;11.652;2022-09-17T16:13:53;16.30;54.40
50758;DHT22;36732;47.980;11.652;2022-09-17T16:16:22;16.20;54.20
50758;DHT22;36732;47.980;11.652;2022-09-17T16:18:49;16.20;54.20
50758;DHT22;36732;47.980;11.652;2022-09-17T16:21:16;16.20;54.90
50758;DHT22;36732;47.980;11.652;2022-09-17T16:23:43;16.10;54.80
50758;DHT22;36732;47.980;11.652;2022-09-17T16:26:18;16.10;55.00
50758;DHT22;36732;47.980;11.652;2022-09-17T16:28:46;16.10;55.30
50758;DHT22;36732;47.980;11.652;2022-09-17T16:31:14;16.10;55.00
50758;DHT22;36732;47.980;11.652;2022-09-17T16:33:40;16.10;55.00
50758;DHT22;36732;47.980;11.652;2022-09-17T16:36:06;16.00;55.00
50758;DHT22;36732;47.980;11.652;2022-09-17T16:38:32;16.00;55.10
50758;DHT22;36732;47.980;11.652;2022-09-17T16:40:58;16.00;55.10
50758;DHT22;36732;47.980;11.652;2022-09-17T16:43:23;16.00;55.10
50758;DHT22;36732;47.980;11.652;2022-09-17T16:46:09;15.90;55.00
50758;DHT22;36732;47.980;11.652;2022-09-17T16:48:35;15.90;55.00
50758;DHT22;36732;47.980;11.652;2022-09-17T16:51:09;15.90;55.00
50758;DHT22;36732;47.980;11.652;2022-09-17T16:53:36;15.90;55.00
50758;DHT22;36732;47.980;11.652;2022-09-17T16:56:09;15.80;55.00
50758;DHT22;36732;47.980;11.652;2022-09-17T16:58:35;15.80;55.00
50758;DHT22;36732;47.980;11.652;2022-09-17T17:01:13;15.80;55.30
50758;DHT22;36732;47.980;11.652;2022-09-17T17:03:40;15.80;55.00
50758;DHT22;36732;47.980;11.652;2022-09-17T17:06:13;15.80;55.10
50758;DHT22;36732;47.980;11.652;2022-09-17T17:08:39;15.80;55.20
50758;DHT22;36732;47.980;11.652;2022-09-17T17:11:05;15.70;55.20
50758;DHT22;36732;47.980;11.652;2022-09-17T17:13:31;15.70;55.20
50758;DHT22;36732;47.980;11.652;2022-09-17T17:15:56;15.70;55.50
50758;DHT22;36732;47.980;11.652;2022-09-17T17:18:22;15.70;55.50
50758;DHT22;36732;47.980;11.652;2022-09-17T17:20:49;15.70;55.60
50758;DHT22;36732;47.980;11.652;2022-09-17T17:23:15;15.60;55.60
50758;DHT22;36732;47.980;11.652;2022-09-17T17:25:41;15.60;55.60
50758;DHT22;36732;47.980;11.652;2022-09-17T17:28:07;15.60;55.50
50758;DHT22;36732;47.980;11.652;2022-09-17T17:30:33;15.60;55.40
50758;DHT22;36732;47.980;11.652;2022-09-17T17:32:59;15.60;55.30
50758;DHT22;36732;47.980;11.652;2022-09-17T17:35:25;15.60;55.20
50758;DHT22;36732;47.980;11.652;2022-09-17T17:37:51;15.50;55.00
50758;DHT22;36732;47.980;11.652;2022-09-17T17:40:17;15.50;54.70
50758;DHT22;36732;47.980;11.652;2022-09-17T17:42:42;15.50;54.60
50758;DHT22;36732;47.980;11.652;2022-09-17T17:45:11;15.50;54.60
50758;DHT22;36732;47.980;11.652;2022-09-17T17:47:37;15.40;54.50
50758;DHT22;36732;47.980;11.652;2022-09-17T17:50:03;15.40;54.40
50758;DHT22;36732;47.980;11.652;2022-09-17T17:52:29;15.40;54.60
50758;DHT22;36732;47.980;11.652;2022-09-17T17:54:56;15.40;54.40
50758;DHT22;36732;47.980;11.652;2022-09-17T17:57:21;15.30;54.30
50758;DHT22;36732;47.980;11.652;2022-09-17T17:59:47;15.30;54.50
50758;DHT22;36732;47.980;11.652;2022-09-17T18:02:13;15.30;54.50
50758;DHT22;36732;47.980;11.652;2022-09-17T18:04:38;15.30;54.50
50758;DHT22;36732;47.980;11.652;2022-09-17T18:07:04;15.30;54.40
50758;DHT22;36732;47.980;11.652;2022-09-17T18:09:30;15.30;54.40
50758;DHT22;36732;47.980;11.652;2022-09-17T18:11:56;15.30;54.30
50758;DHT22;36732;47.980;11.652;2022-09-17T18:14:21;15.30;54.30
50758;DHT22;36732;47.980;11.652;2022-09-17T18:16:47;15.30;54.40
50758;DHT22;36732;47.980;11.652;2022-09-17T18:19:13;15.20;54.20
50758;DHT22;36732;47.980;11.652;2022-09-17T18:21:39;15.30;54.30
50758;DHT22;36732;47.980;11.652;2022-09-17T18:24:05;15.20;54.30
50758;DHT22;36732;47.980;11.652;2022-09-17T18:26:32;15.30;54.30
50758;DHT22;36732;47.980;11.652;2022-09-17T18:28:58;15.20;54.20
50758;DHT22;36732;47.980;11.652;2022-09-17T18:31:29;15.20;54.30
50758;DHT22;36732;47.980;11.652;2022-09-17T18:34:07;15.20;54.40
50758;DHT22;36732;47.980;11.652;2022-09-17T18:36:35;15.20;54.50
50758;DHT22;36732;47.980;11.652;2022-09-17T18:39:03;15.20;54.50
50758;DHT22;36732;47.980;11.652;2022-09-17T18:41:35;15.20;54.50
50758;DHT22;36732;47.980;11.652;2022-09-17T18:44:03;15.20;54.40
50758;DHT22;36732;47.980;11.652;2022-09-17T18:46:29;15.20;54.40
50758;DHT22;36732;47.980;11.652;2022-09-17T18:48:56;15.20;54.40
50758;DHT22;36732;47.980;11.652;2022-09-17T18:51:23;15.20;54.20
50758;DHT22;36732;47.980;11.652;2022-09-17T18:53:51;15.20;54.20
50758;DHT22;36732;47.980;11.652;2022-09-17T18:56:23;15.20;54.10
50758;DHT22;36732;47.980;11.652;2022-09-17T18:58:52;15.20;54.10
50758;DHT22;36732;47.980;11.652;2022-09-17T19:01:22;15.20;54.00
50758;DHT22;36732;47.980;11.652;2022-09-17T19:03:49;15.20;53.80
50758;DHT22;36732;47.980;11.652;2022-09-17T19:06:15;15.20;54.00
50758;DHT22;36732;47.980;11.652;2022-09-17T19:08:42;15.20;54.10
50758;DHT22;36732;47.980;11.652;2022-09-17T19:11:08;15.10;54.10
50758;DHT22;36732;47.980;11.652;2022-09-17T19:13:36;15.10;54.30
50758;DHT22;36732;47.980;11.652;2022-09-17T19:16:04;15.10;54.30
50758;DHT22;36732;47.980;11.652;2022-09-17T19:18:31;15.10;54.40